Time;durP1;ratioP1;P1;durP2;ratioP2;P2;SDS_P1;SDS_P2;PMS_P1;PMS_P2;Temp;Humidity;BMP_temperature;BMP_pressure;BME280_temperature;BME280_humidity;BME280_pressure;Samples;Min_cycle;Max_cycle;Signal;HPM_P1;HPM_P2
2021/03/25 00:01:39;;;;;;;6.20;5.60;;;22.60;30.10;;;;;;5053011;28;20422;-60
2021/03/25 00:04:05;;;;;;;6.65;5.70;;;22.70;30.10;;;;;;5054355;28;20029;-57
2021/03/25 00:06:35;;;;;;;7.10;5.68;;;22.70;30.10;;;;;;5053944;28;20429;-59
2021/03/25 00:09:00;;;;;;;7.03;5.88;;;22.70;30.10;;;;;;5054029;28;20401;-56
2021/03/25 00:11:26;;;;;;;7.10;6.05;;;22.60;30.10;;;;;;5054358;28;20128;-57
2021/03/25 00:13:52;;;;;;;7.43;5.78;;;22.60;30.10;;;;;;5053497;28;20056;-60
2021/03/25 00:16:18;;;;;;;7.95;5.60;;;22.60;30.10;;;;;;5053219;28;20076;-61
2021/03/25 00:18:44;;;;;;;7.35;5.75;;;22.50;30.10;;;;;;5053206;28;20491;-61
2021/03/25 00:21:11;;;;;;;7.75;6.15;;;22.50;30.30;;;;;;5053465;28;20098;-60
2021/03/25 00:23:37;;;;;;;6.90;5.43;;;22.50;30.40;;;;;;5054950;28;20068;-58
2021/03/25 00:26:03;;;;;;;7.45;6.20;;;22.50;30.40;;;;;;5053216;28;20017;-61
2021/03/25 00:28:29;;;;;;;6.47;5.13;;;22.40;30.40;;;;;;5054199;28;20025;-60
2021/03/25 00:30:55;;;;;;;7.55;6.00;;;22.50;30.50;;;;;;5047830;28;20412;-60
2021/03/25 00:33:22;;;;;;;6.68;5.47;;;22.50;30.50;;;;;;5053554;28;20044;-60
2021/03/25 00:35:49;;;;;;;6.45;5.38;;;22.50;30.40;;;;;;5056241;28;20082;-58
2021/03/25 00:38:15;;;;;;;6.20;5.10;;;22.50;30.40;;;;;;5058201;28;20412;-55
2021/03/25 00:40:46;;;;;;;5.45;4.72;;;22.50;30.40;;;;;;5052713;28;20395;-60
2021/03/25 00:43:13;;;;;;;7.18;5.38;;;22.50;30.40;;;;;;5054329;28;20053;-61
2021/03/25 00:45:44;;;;;;;6.72;5.45;;;22.50;30.30;;;;;;5057111;28;20033;-55
2021/03/25 00:48:12;;;;;;;6.47;5.40;;;22.60;30.40;;;;;;5052693;28;20106;-58
2021/03/25 00:50:41;;;;;;;5.93;5.32;;;22.50;30.30;;;;;;5055855;28;20036;-58
2021/03/25 00:53:10;;;;;;;6.40;5.47;;;22.50;30.30;;;;;;5056577;28;20037;-59
2021/03/25 00:55:36;;;;;;;7.35;5.60;;;22.60;30.30;;;;;;5054486;28;20053;-62
2021/03/25 00:58:02;;;;;;;6.65;5.85;;;22.60;30.30;;;;;;5035438;28;20063;-59
2021/03/25 01:00:32;;;;;;;7.43;5.68;;;22.50;30.20;;;;;;5042545;28;20444;-62
2021/03/25 01:02:58;;;;;;;6.25;5.10;;;22.50;30.20;;;;;;5057893;28;20033;-58
2021/03/25 01:05:25;;;;;;;6.90;5.75;;;22.60;30.30;;;;;;5055137;28;20132;-60
2021/03/25 01:07:51;;;;;;;6.75;5.35;;;22.50;30.20;;;;;;5057234;28;20053;-58
2021/03/25 01:10:42;;;;;;;7.22;5.13;;;22.60;30.30;;;;;;5055744;28;20033;-60
2021/03/25 01:13:24;;;;;;;7.82;5.30;;;22.60;30.20;;;;;;5057719;28;20432;-57
2021/03/25 01:15:50;;;;;;;7.47;5.45;;;22.60;30.30;;;;;;5050213;28;20025;-59
2021/03/25 01:18:17;;;;;;;6.22;5.45;;;22.60;30.20;;;;;;5053744;28;20129;-62
2021/03/25 01:20:43;;;;;;;6.65;5.95;;;22.50;30.20;;;;;;5044429;28;20044;-58
2021/03/25 01:23:10;;;;;;;6.82;5.88;;;22.50;30.20;;;;;;5056440;28;20112;-64
2021/03/25 01:25:38;;;;;;;6.63;5.93;;;22.50;30.20;;;;;;5056916;28;20033;-58
2021/03/25 01:28:07;;;;;;;8.15;5.93;;;22.60;30.20;;;;;;5053655;28;20036;-53
2021/03/25 01:30:36;;;;;;;7.75;6.05;;;22.50;30.20;;;;;;5053928;28;20033;-60
2021/03/25 01:33:06;;;;;;;7.85;6.43;;;22.50;30.20;;;;;;5056141;28;20040;-61
2021/03/25 01:35:34;;;;;;;6.60;5.43;;;22.50;30.20;;;;;;5056598;28;20044;-61
2021/03/25 01:38:00;;;;;;;7.40;5.90;;;22.60;30.20;;;;;;5038712;28;20041;-57
2021/03/25 01:40:30;;;;;;;6.97;5.60;;;22.50;30.10;;;;;;5052233;28;20025;-58
2021/03/25 01:43:23;;;;;;;8.23;6.32;;;22.50;30.10;;;;;;5038573;28;20079;-60
2021/03/25 01:46:15;;;;;;;6.18;5.43;;;22.50;30.10;;;;;;5051633;28;20414;-59
2021/03/25 01:48:43;;;;;;;7.32;6.05;;;22.50;30.10;;;;;;5056664;28;20115;-59
2021/03/25 01:51:34;;;;;;;;;;;22.50;30.20;;;;;;5054486;28;20514;-56
2021/03/25 01:54:30;;;;;;;6.05;5.32;;;22.50;30.20;;;;;;5035637;28;20300;-60
2021/03/25 01:57:02;;;;;;;6.55;5.57;;;22.50;30.20;;;;;;5055113;28;20129;-59
2021/03/25 01:59:38;;;;;;;7.65;5.85;;;22.50;30.30;;;;;;5055652;28;20043;-61
2021/03/25 02:02:17;;;;;;;7.88;5.95;;;22.50;30.40;;;;;;5054663;28;20440;-61
2021/03/25 02:04:58;;;;;;;6.22;5.55;;;22.50;30.40;;;;;;5055568;28;20029;-56
2021/03/25 02:07:42;;;;;;;7.05;5.22;;;22.50;30.40;;;;;;5051405;28;20033;-59
2021/03/25 02:10:18;;;;;;;7.75;5.32;;;22.50;30.40;;;;;;5051788;28;20029;-58
2021/03/25 02:12:57;;;;;;;7.68;5.63;;;22.50;30.40;;;;;;5038758;28;20065;-58
2021/03/25 02:15:29;;;;;;;6.40;5.72;;;22.50;30.40;;;;;;5055561;28;20387;-63
2021/03/25 02:18:05;;;;;;;6.57;5.80;;;22.50;30.40;;;;;;5054184;28;20108;-59
2021/03/25 02:21:07;;;;;;;6.50;5.22;;;22.40;30.40;;;;;;5054763;28;20048;-58
2021/03/25 02:23:52;;;;;;;8.65;5.40;;;22.40;30.50;;;;;;5041604;28;20025;-59
2021/03/25 02:26:30;;;;;;;6.07;5.30;;;22.40;30.50;;;;;;5046570;28;20086;-59
2021/03/25 02:29:25;;;;;;;6.97;5.97;;;22.40;30.50;;;;;;5054353;28;20017;-59
2021/03/25 02:31:58;;;;;;;6.28;5.28;;;22.40;30.50;;;;;;5036185;28;20033;-62
2021/03/25 02:34:31;;;;;;;7.70;5.97;;;22.40;30.50;;;;;;5049943;28;20360;-55
2021/03/25 02:37:24;;;;;;;6.97;5.55;;;22.40;30.50;;;;;;5055701;28;20039;-59
2021/03/25 02:39:58;;;;;;;8.05;5.72;;;22.40;30.50;;;;;;5067035;28;20032;-57
2021/03/25 02:42:43;;;;;;;7.57;6.05;;;22.40;30.50;;;;;;5058570;28;20040;-61
2021/03/25 02:45:25;;;;;;;7.93;5.93;;;22.40;30.50;;;;;;5054848;28;20041;-61
2021/03/25 02:48:03;;;;;;;8.07;6.13;;;22.40;30.50;;;;;;5054785;28;20032;-60
2021/03/25 02:50:43;;;;;;;6.43;5.55;;;22.40;30.50;;;;;;5052941;28;20502;-60
2021/03/25 02:53:30;;;;;;;8.45;6.78;;;22.40;30.50;;;;;;5055726;28;20029;-63
2021/03/25 02:56:01;;;;;;;7.85;6.25;;;22.40;30.50;;;;;;5054924;28;20036;-58
2021/03/25 02:58:33;;;;;;;7.57;5.78;;;22.40;30.50;;;;;;5042549;28;20498;-61
2021/03/25 03:01:05;;;;;;;8.52;6.25;;;22.40;30.50;;;;;;5054182;28;20040;-61
2021/03/25 03:03:49;;;;;;;7.30;5.90;;;22.40;30.50;;;;;;5049915;28;20126;-59
2021/03/25 03:06:40;;;;;;;6.82;6.13;;;22.40;30.50;;;;;;5035057;28;20112;-59
2021/03/25 03:09:14;;;;;;;7.65;6.35;;;22.40;30.60;;;;;;5046098;28;20036;-57
2021/03/25 03:11:44;;;;;;;7.97;6.68;;;22.40;30.60;;;;;;5053008;28;20029;-60
2021/03/25 03:14:24;;;;;;;9.13;6.80;;;22.30;30.60;;;;;;5053357;28;20025;-58
2021/03/25 03:16:56;;;;;;;7.18;6.00;;;22.30;30.70;;;;;;5054130;28;20047;-59
2021/03/25 03:19:48;;;;;;;6.63;5.78;;;22.20;30.70;;;;;;5053404;28;20085;-59
2021/03/25 03:22:15;;;;;;;8.32;6.88;;;22.20;30.80;;;;;;5053250;28;20025;-61
2021/03/25 03:25:07;;;;;;;8.52;6.90;;;22.20;30.80;;;;;;5052857;28;20538;-58
2021/03/25 03:27:49;;;;;;;8.30;7.18;;;22.10;30.90;;;;;;5054517;28;20116;-59
2021/03/25 03:30:20;;;;;;;7.95;6.78;;;22.10;30.90;;;;;;5043467;28;20028;-59
2021/03/25 03:33:14;;;;;;;7.68;6.47;;;22.10;30.90;;;;;;5053867;28;20033;-56
2021/03/25 03:35:45;;;;;;;7.80;6.90;;;22.10;31.00;;;;;;5053997;28;20043;-61
2021/03/25 03:38:16;;;;;;;7.50;6.38;;;22.10;31.00;;;;;;5036743;28;20043;-60
2021/03/25 03:40:56;;;;;;;8.20;7.13;;;22.00;31.00;;;;;;5052959;28;20453;-60
2021/03/25 03:43:24;;;;;;;9.38;7.57;;;22.00;31.00;;;;;;5036704;28;20040;-59
2021/03/25 03:46:00;;;;;;;7.85;6.80;;;22.00;31.00;;;;;;5052813;28;20060;-59
2021/03/25 03:48:47;;;;;;;7.95;6.90;;;22.00;31.00;;;;;;5052059;28;20050;-58
2021/03/25 03:51:26;;;;;;;8.68;6.75;;;21.90;31.10;;;;;;5054536;28;20036;-60
2021/03/25 03:53:52;;;;;;;9.05;7.18;;;22.00;31.10;;;;;;5054537;28;20032;-60
2021/03/25 03:56:41;;;;;;;9.52;7.35;;;21.90;31.10;;;;;;5046193;28;20043;-57
2021/03/25 03:59:35;;;;;;;8.10;7.20;;;21.90;31.10;;;;;;5042041;28;20033;-56
2021/03/25 04:02:34;;;;;;;8.38;7.25;;;21.90;31.10;;;;;;5037201;28;20408;-53
2021/03/25 04:05:10;;;;;;;10.25;7.18;;;21.90;31.10;;;;;;5053394;28;20567;-56
2021/03/25 04:08:07;;;;;;;8.32;6.93;;;21.90;30.70;;;;;;5041690;28;20043;-58
2021/03/25 04:11:12;;;;;;;9.57;7.22;;;21.80;31.20;;;;;;5052470;28;20025;-58
2021/03/25 04:13:42;;;;;;;9.07;7.45;;;21.80;31.20;;;;;;5055577;28;20044;-59
2021/03/25 04:16:09;;;;;;;8.48;7.38;;;21.80;31.30;;;;;;5056437;28;20028;-50
2021/03/25 04:18:42;;;;;;;9.68;8.02;;;21.80;31.30;;;;;;5054430;28;20086;-61
2021/03/25 04:21:56;;;;;;;9.57;7.47;;;21.80;31.30;;;;;;4992894;28;20394;-61
2021/03/25 04:24:26;;;;;;;10.07;7.65;;;21.80;31.30;;;;;;5046813;28;20078;-61
2021/03/25 04:27:08;;;;;;;7.85;6.93;;;21.80;31.30;;;;;;5054611;28;20355;-58
2021/03/25 04:29:42;;;;;;;9.73;7.22;;;21.80;31.40;;;;;;5054736;28;20108;-59
2021/03/25 04:32:09;;;;;;;7.95;6.95;;;21.80;31.40;;;;;;5054628;28;20033;-56
2021/03/25 04:34:35;;;;;;;9.68;7.30;;;21.70;31.40;;;;;;5056772;28;20034;-54
2021/03/25 04:37:03;;;;;;;9.50;7.57;;;21.70;31.40;;;;;;5056970;28;20068;-54
2021/03/25 04:39:30;;;;;;;10.93;8.13;;;21.70;31.40;;;;;;5056318;28;20040;-56
2021/03/25 04:41:56;;;;;;;9.85;7.47;;;21.70;31.40;;;;;;5057399;28;20043;-52
2021/03/25 04:44:59;;;;;;;9.98;7.43;;;21.70;31.50;;;;;;5039918;28;20413;-56
2021/03/25 04:47:31;;;;;;;7.88;7.07;;;21.70;31.50;;;;;;5039802;28;20367;-58
2021/03/25 04:50:00;;;;;;;8.68;6.70;;;21.70;31.50;;;;;;5054155;28;20037;-58
2021/03/25 04:52:29;;;;;;;7.90;7.03;;;21.70;31.60;;;;;;5053736;28;20079;-59
2021/03/25 04:55:03;;;;;;;8.57;7.40;;;21.60;31.50;;;;;;5053926;28;20029;-60
2021/03/25 04:57:38;;;;;;;8.90;7.63;;;21.60;31.60;;;;;;5051407;28;20368;-57
2021/03/25 05:00:12;;;;;;;9.45;7.47;;;21.60;31.60;;;;;;5036493;28;20112;-53
2021/03/25 05:02:39;;;;;;;;;;;21.60;31.60;;;;;;5048576;28;20433;-60
2021/03/25 05:05:06;;;;;;;8.85;7.63;;;21.60;31.60;;;;;;5054270;28;19909;-57
2021/03/25 05:07:35;;;;;;;9.20;7.30;;;21.60;31.70;;;;;;5051702;28;20424;-62
2021/03/25 05:10:03;;;;;;;7.97;7.10;;;21.60;31.70;;;;;;5053815;28;20033;-57
2021/03/25 05:12:30;;;;;;;11.23;7.80;;;21.60;31.70;;;;;;5052882;28;20029;-58
2021/03/25 05:15:22;;;;;;;8.27;7.45;;;21.60;31.70;;;;;;5053557;28;20090;-55
2021/03/25 05:17:54;;;;;;;8.68;7.60;;;21.60;31.80;;;;;;5048681;28;20491;-59
2021/03/25 05:20:35;;;;;;;8.98;7.72;;;21.60;31.80;;;;;;5052182;28;20464;-60
2021/03/25 05:23:25;;;;;;;7.95;7.10;;;21.60;31.80;;;;;;5056465;28;20444;-56
2021/03/25 05:26:09;;;;;;;9.55;7.70;;;21.60;31.90;;;;;;5056079;28;20076;-60
2021/03/25 05:28:44;;;;;;;9.68;7.47;;;21.60;31.90;;;;;;5057440;28;20309;-58
2021/03/25 05:31:12;;;;;;;7.88;6.75;;;21.60;32.00;;;;;;5049943;28;20047;-59
2021/03/25 05:33:39;;;;;;;8.95;7.10;;;21.60;32.00;;;;;;5054557;28;20032;-61
2021/03/25 05:36:11;;;;;;;12.23;7.40;;;21.60;32.10;;;;;;5056821;28;20447;-57
2021/03/25 05:38:39;;;;;;;8.55;7.20;;;21.50;32.10;;;;;;5057166;28;20029;-60
2021/03/25 05:41:23;;;;;;;9.82;7.38;;;21.50;32.00;;;;;;5056176;28;20087;-61
2021/03/25 05:44:03;;;;;;;7.90;7.05;;;21.60;32.10;;;;;;5056561;28;20065;-57
2021/03/25 05:46:51;;;;;;;8.27;7.07;;;21.60;32.10;;;;;;5036968;28;20116;-60
2021/03/25 05:49:20;;;;;;;9.35;7.20;;;21.60;32.00;;;;;;5054585;28;20033;-57
2021/03/25 05:52:30;;;;;;;9.05;7.60;;;21.60;32.00;;;;;;5056215;28;20033;-59
2021/03/25 05:54:59;;;;;;;8.88;7.03;;;21.70;32.00;;;;;;4983071;28;20047;-56
2021/03/25 05:57:46;;;;;;;8.43;6.90;;;21.70;32.00;;;;;;5053716;28;20482;-61
2021/03/25 06:00:34;;;;;;;8.68;7.43;;;21.70;31.90;;;;;;5056694;28;20178;-57
2021/03/25 06:03:07;;;;;;;8.88;6.63;;;21.70;31.90;;;;;;5055474;28;20041;-58
2021/03/25 06:05:33;;;;;;;8.57;7.13;;;21.70;31.80;;;;;;5055690;28;20044;-59
2021/03/25 06:08:28;;;;;;;9.30;7.45;;;21.80;31.90;;;;;;5055876;28;20029;-58
2021/03/25 06:11:01;;;;;;;9.02;7.07;;;21.80;31.80;;;;;;5052712;28;20073;-56
2021/03/25 06:13:30;;;;;;;8.80;7.25;;;21.80;31.80;;;;;;5037149;28;20179;-61
2021/03/25 06:16:17;;;;;;;9.38;7.45;;;21.80;31.80;;;;;;5054847;28;20325;-60
2021/03/25 06:18:57;;;;;;;9.20;7.80;;;21.80;31.80;;;;;;5056327;28;20025;-62
2021/03/25 06:21:57;;;;;;;8.38;7.47;;;21.80;31.80;;;;;;5041146;28;20045;-60
2021/03/25 06:24:50;;;;;;;9.40;7.70;;;21.80;31.80;;;;;;5043239;28;20044;-60
2021/03/25 06:27:25;;;;;;;10.18;7.38;;;21.80;31.80;;;;;;5055800;28;20033;-58
2021/03/25 06:29:58;;;;;;;9.48;7.32;;;21.80;32.40;;;;;;5055908;28;20051;-58
2021/03/25 06:32:34;;;;;;;8.60;7.03;;;21.80;31.80;;;;;;5055176;28;20033;-59
2021/03/25 06:35:11;;;;;;;8.15;6.85;;;21.80;31.80;;;;;;5054920;28;20059;-61
2021/03/25 06:38:16;;;;;;;8.98;7.28;;;21.80;31.80;;;;;;5039452;28;20079;-58
2021/03/25 06:40:49;;;;;;;10.60;7.22;;;21.90;32.40;;;;;;5024670;28;20068;-60
2021/03/25 06:43:29;;;;;;;8.93;7.32;;;21.90;31.80;;;;;;5055197;28;20029;-62
2021/03/25 06:46:02;;;;;;;9.35;6.93;;;21.90;31.80;;;;;;5055656;28;20050;-60
2021/03/25 06:48:47;;;;;;;8.88;7.35;;;21.90;31.80;;;;;;5056033;28;20374;-59
2021/03/25 06:51:22;;;;;;;9.30;7.18;;;21.90;31.80;;;;;;5055306;28;20448;-63
2021/03/25 06:53:52;;;;;;;8.07;6.47;;;21.90;31.80;;;;;;5055338;28;20455;-56
2021/03/25 06:56:31;;;;;;;9.60;7.43;;;21.90;31.80;;;;;;5055152;28;20039;-58
2021/03/25 06:59:00;;;;;;;8.68;7.15;;;21.90;31.80;;;;;;5054982;28;20564;-59
2021/03/25 07:01:31;;;;;;;8.10;7.18;;;21.90;31.90;;;;;;5055192;28;20028;-62
2021/03/25 07:04:17;;;;;;;9.98;7.45;;;21.90;31.90;;;;;;5055039;28;20056;-58
2021/03/25 07:06:44;;;;;;;8.43;6.88;;;21.90;31.90;;;;;;5054176;28;20109;-64
2021/03/25 07:09:10;;;;;;;10.82;7.78;;;21.90;31.90;;;;;;5055843;28;20035;-60
2021/03/25 07:11:38;;;;;;;11.07;7.72;;;21.90;31.90;;;;;;5054734;28;20085;-57
2021/03/25 07:14:10;;;;;;;9.55;7.30;;;21.90;31.90;;;;;;5023365;28;20026;-55
2021/03/25 07:16:45;;;;;;;8.50;7.35;;;22.00;32.00;;;;;;5044257;28;20040;-59
2021/03/25 07:19:18;;;;;;;8.63;7.22;;;22.00;32.00;;;;;;5054855;28;20352;-60
2021/03/25 07:21:49;;;;;;;8.95;6.93;;;22.00;32.10;;;;;;5054642;28;20051;-61
2021/03/25 07:24:36;;;;;;;9.05;7.40;;;22.00;32.10;;;;;;5053090;28;20028;-62
2021/03/25 07:27:05;;;;;;;8.43;7.35;;;22.00;32.10;;;;;;5054405;28;20029;-56
2021/03/25 07:29:34;;;;;;;9.32;7.05;;;22.00;32.10;;;;;;5053052;28;20124;-58
2021/03/25 07:32:05;;;;;;;9.23;7.47;;;22.00;32.20;;;;;;5053388;28;20151;-60
2021/03/25 07:34:47;;;;;;;9.27;7.45;;;21.90;32.20;;;;;;5054500;28;20033;-56
2021/03/25 07:37:32;;;;;;;9.50;7.47;;;21.90;32.90;;;;;;5047766;28;20068;-57
2021/03/25 07:40:07;;;;;;;10.38;8.45;;;21.90;32.40;;;;;;5043159;28;20041;-58
2021/03/25 07:42:36;;;;;;;8.65;7.25;;;21.80;32.40;;;;;;5034845;28;20319;-56
2021/03/25 07:45:18;;;;;;;8.95;7.53;;;21.80;32.50;;;;;;5054051;28;20432;-55
2021/03/25 07:47:45;;;;;;;9.20;7.88;;;21.70;32.50;;;;;;5053881;28;20025;-58
2021/03/25 07:50:26;;;;;;;8.50;6.95;;;21.70;32.50;;;;;;5054153;28;20448;-62
2021/03/25 07:52:53;;;;;;;10.15;7.20;;;21.70;32.60;;;;;;5053285;28;20097;-55
2021/03/25 07:55:18;;;;;;;8.95;6.78;;;21.70;32.70;;;;;;5054052;28;20025;-57
2021/03/25 07:57:46;;;;;;;10.32;8.00;;;21.70;32.80;;;;;;5054544;28;20170;-56
2021/03/25 08:00:32;;;;;;;8.77;7.18;;;21.70;32.90;;;;;;5054566;28;20089;-59
2021/03/25 08:03:18;;;;;;;12.95;9.13;;;21.70;33.10;;;;;;5052955;28;20052;-56
2021/03/25 08:05:49;;;;;;;11.32;8.00;;;21.80;33.20;;;;;;5051758;28;20025;-52
2021/03/25 08:08:32;;;;;;;11.38;8.25;;;21.80;33.20;;;;;;5053160;28;20067;-59
2021/03/25 08:11:17;;;;;;;11.05;8.30;;;21.80;33.20;;;;;;5053612;28;20048;-61
2021/03/25 08:13:59;;;;;;;9.00;6.95;;;21.90;33.90;;;;;;5045096;28;20029;-60
2021/03/25 08:16:28;;;;;;;11.73;7.95;;;22.00;33.20;;;;;;5053652;28;20039;-62
2021/03/25 08:19:17;;;;;;;11.80;8.13;;;22.00;33.20;;;;;;5052758;28;20100;-60
2021/03/25 08:22:26;;;;;;;9.38;7.93;;;22.10;33.10;;;;;;5053821;28;20063;-58
2021/03/25 08:25:13;;;;;;;9.65;7.00;;;22.10;32.90;;;;;;5053569;28;20029;-62
2021/03/25 08:28:07;;;;;;;10.57;7.53;;;22.20;32.80;;;;;;5053096;28;20414;-61
2021/03/25 08:30:51;;;;;;;9.27;7.17;;;22.30;32.80;;;;;;5039806;28;20037;-58
2021/03/25 08:33:38;;;;;;;8.18;6.32;;;22.30;32.80;;;;;;5049971;28;20337;-60
2021/03/25 08:36:12;;;;;;;7.57;6.10;;;22.40;32.90;;;;;;5054011;28;20504;-61
2021/03/25 08:38:41;;;;;;;9.20;7.05;;;22.40;32.70;;;;;;5053976;28;20155;-60
2021/03/25 08:41:14;;;;;;;8.02;6.43;;;22.40;32.70;;;;;;5052731;28;20428;-62
2021/03/25 08:43:59;;;;;;;8.68;6.47;;;22.40;32.70;;;;;;5052561;28;20451;-59
2021/03/25 08:46:33;;;;;;;8.55;6.22;;;22.50;32.70;;;;;;5053205;28;20075;-60
2021/03/25 08:49:05;;;;;;;8.52;6.45;;;22.50;32.60;;;;;;5052905;28;20067;-61
2021/03/25 08:51:37;;;;;;;10.18;6.57;;;22.50;32.60;;;;;;5049259;28;20047;-59
2021/03/25 08:54:12;;;;;;;9.57;6.75;;;22.50;32.60;;;;;;5052268;28;20039;-60
2021/03/25 08:56:42;;;;;;;9.95;6.28;;;22.50;32.70;;;;;;5052483;28;20077;-61
2021/03/25 08:59:17;;;;;;;8.40;6.15;;;22.50;32.70;;;;;;5056233;28;20021;-59
2021/03/25 09:02:16;;;;;;;7.07;6.07;;;22.50;32.80;;;;;;5054738;28;20102;-57
2021/03/25 09:05:05;;;;;;;7.97;6.28;;;22.50;32.70;;;;;;5056273;28;20337;-56
2021/03/25 09:07:36;;;;;;;8.13;6.18;;;22.50;32.80;;;;;;5042377;28;20072;-58
2021/03/25 09:10:09;;;;;;;6.07;5.13;;;22.50;32.90;;;;;;5055625;28;20029;-60
2021/03/25 09:12:36;;;;;;;6.18;4.78;;;22.50;32.90;;;;;;5052901;28;20021;-57
2021/03/25 09:15:06;;;;;;;6.32;4.80;;;22.60;32.90;;;;;;5054767;28;20025;-57
2021/03/25 09:17:51;;;;;;;5.60;4.85;;;22.60;32.80;;;;;;5054740;28;20406;-61
2021/03/25 09:20:26;;;;;;;7.75;4.95;;;22.70;32.80;;;;;;5054772;28;20037;-58
2021/03/25 09:22:56;;;;;;;6.03;4.63;;;22.70;32.80;;;;;;5055394;28;20036;-59
2021/03/25 09:25:37;;;;;;;4.82;4.00;;;22.70;32.70;;;;;;5055564;28;20016;-58
2021/03/25 09:28:19;;;;;;;4.85;3.88;;;22.70;32.60;;;;;;5053555;28;20021;-60
2021/03/25 09:31:10;;;;;;;5.53;3.90;;;22.70;32.50;;;;;;5053218;28;20115;-59
2021/03/25 09:33:41;;;;;;;5.50;3.72;;;22.80;32.50;;;;;;5055643;28;20463;-59
2021/03/25 09:36:33;;;;;;;5.22;3.75;;;22.80;32.50;;;;;;5055544;28;20344;-60
2021/03/25 09:38:59;;;;;;;5.05;3.88;;;22.80;32.50;;;;;;5010116;28;20107;-60
2021/03/25 09:41:24;;;;;;;6.22;3.83;;;22.80;32.50;;;;;;5054576;28;20443;-61
2021/03/25 09:44:12;;;;;;;4.90;3.65;;;22.90;32.50;;;;;;5055094;28;20428;-61
2021/03/25 09:46:49;;;;;;;4.20;3.50;;;22.90;32.50;;;;;;5053879;28;20107;-58
2021/03/25 09:49:33;;;;;;;4.75;3.67;;;22.90;32.40;;;;;;5051494;28;20416;-61
2021/03/25 09:52:14;;;;;;;5.30;3.92;;;22.90;33.10;;;;;;5055930;28;20041;-62
2021/03/25 09:54:57;;;;;;;4.47;3.40;;;22.90;32.40;;;;;;5052604;28;20499;-61
2021/03/25 09:57:29;;;;;;;4.37;3.47;;;22.90;32.40;;;;;;5055242;28;20047;-60
2021/03/25 10:00:01;;;;;;;4.70;3.35;;;22.90;32.40;;;;;;5055569;28;20758;-60
2021/03/25 10:02:47;;;;;;;5.32;3.40;;;23.00;32.40;;;;;;5054990;28;20028;-60
2021/03/25 10:05:30;;;;;;;4.55;3.25;;;23.00;32.40;;;;;;5056099;28;20041;-58
2021/03/25 10:08:12;;;;;;;5.95;3.75;;;23.00;32.40;;;;;;5047763;28;20029;-60
2021/03/25 10:10:51;;;;;;;5.85;3.42;;;23.00;32.40;;;;;;5056577;28;20112;-60
2021/03/25 10:13:29;;;;;;;4.43;3.25;;;23.00;32.30;;;;;;5055832;28;20098;-61
2021/03/25 10:15:59;;;;;;;4.13;2.90;;;23.00;32.30;;;;;;5056226;28;20044;-60
2021/03/25 10:18:25;;;;;;;5.30;3.55;;;23.00;32.30;;;;;;5056197;28;20087;-59
2021/03/25 10:21:01;;;;;;;5.20;3.15;;;23.00;32.30;;;;;;5055843;28;20496;-57
2021/03/25 10:23:32;;;;;;;3.88;2.95;;;23.00;32.30;;;;;;5055242;28;20037;-59
2021/03/25 10:26:09;;;;;;;4.88;3.30;;;23.00;32.30;;;;;;5055716;28;20029;-62
2021/03/25 10:28:51;;;;;;;5.00;3.33;;;23.00;32.30;;;;;;5054950;28;20033;-61
2021/03/25 10:31:28;;;;;;;3.97;3.22;;;23.10;32.30;;;;;;5052511;28;20025;-61
2021/03/25 10:34:07;;;;;;;4.50;3.38;;;23.00;32.30;;;;;;5055137;28;20407;-61
2021/03/25 10:36:52;;;;;;;4.50;3.20;;;23.00;32.30;;;;;;5055412;28;20361;-62
2021/03/25 10:39:48;;;;;;;3.88;3.03;;;23.00;32.30;;;;;;5046182;28;20029;-60
2021/03/25 10:42:36;;;;;;;4.15;3.22;;;23.00;32.30;;;;;;5028217;28;20033;-61
2021/03/25 10:45:45;;;;;;;3.75;3.00;;;23.00;32.30;;;;;;5052156;28;20670;-55
2021/03/25 10:48:48;;;;;;;4.30;2.97;;;23.00;32.40;;;;;;5040782;28;20041;-58
2021/03/25 10:51:21;;;;;;;4.28;3.08;;;23.00;32.50;;;;;;5054119;28;20063;-56
2021/03/25 10:53:51;;;;;;;3.90;2.75;;;23.00;32.60;;;;;;5053961;28;20455;-59
2021/03/25 10:56:28;;;;;;;3.65;2.85;;;23.00;32.60;;;;;;5054357;28;20329;-58
2021/03/25 10:59:09;;;;;;;4.45;2.75;;;23.00;32.70;;;;;;5054140;28;20460;-58
2021/03/25 11:01:37;;;;;;;4.32;3.28;;;23.00;32.70;;;;;;5046636;28;20436;-57
2021/03/25 11:04:38;;;;;;;5.47;3.60;;;23.00;32.70;;;;;;5054879;28;20032;-55
2021/03/25 11:07:12;;;;;;;4.30;3.30;;;23.00;32.80;;;;;;4974094;28;20380;-59
2021/03/25 11:09:38;;;;;;;5.03;3.15;;;23.00;32.80;;;;;;5041956;28;20052;-55
2021/03/25 11:12:23;;;;;;;5.32;3.30;;;23.00;32.80;;;;;;5055342;28;20354;-66
2021/03/25 11:14:55;;;;;;;5.07;3.22;;;23.10;32.90;;;;;;5051684;28;20033;-55
2021/03/25 11:17:34;;;;;;;4.35;3.33;;;23.10;33.00;;;;;;5054987;28;20087;-61
2021/03/25 11:20:05;;;;;;;4.35;3.20;;;23.10;33.00;;;;;;5050498;28;20045;-62
2021/03/25 11:22:32;;;;;;;3.15;2.67;;;23.10;33.10;;;;;;5053591;28;20104;-61
2021/03/25 11:25:05;;;;;;;3.83;2.92;;;23.10;33.10;;;;;;5045590;28;20037;-57
2021/03/25 11:27:31;;;;;;;3.78;2.80;;;23.10;33.10;;;;;;5053325;28;20048;-61
2021/03/25 11:30:05;;;;;;;4.95;2.95;;;23.10;33.10;;;;;;5051433;28;20032;-61
2021/03/25 11:32:38;;;;;;;3.60;2.65;;;23.10;33.10;;;;;;5053111;28;20035;-61
2021/03/25 11:35:31;;;;;;;4.82;3.13;;;23.10;33.10;;;;;;5053866;28;20033;-61
2021/03/25 11:38:30;;;;;;;3.17;2.65;;;23.10;33.10;;;;;;5052586;28;20041;-62
2021/03/25 11:40:59;;;;;;;4.40;2.80;;;23.10;33.10;;;;;;5042516;28;20365;-61
2021/03/25 11:43:58;;;;;;;3.42;2.53;;;23.10;33.10;;;;;;5053823;28;20032;-61
2021/03/25 11:46:52;;;;;;;4.00;2.70;;;23.10;33.10;;;;;;5050279;28;20112;-60
2021/03/25 11:49:22;;;;;;;3.88;2.70;;;23.10;33.10;;;;;;5052887;28;20071;-61
2021/03/25 11:51:50;;;;;;;3.13;2.13;;;23.10;33.10;;;;;;5053065;28;20021;-61
2021/03/25 11:54:25;;;;;;;2.67;2.22;;;23.00;33.10;;;;;;5052482;28;20364;-60
2021/03/25 11:57:12;;;;;;;2.67;2.35;;;23.10;33.20;;;;;;5051490;28;20044;-61
2021/03/25 11:59:40;;;;;;;3.15;2.33;;;23.10;33.30;;;;;;5035499;28;20059;-60
2021/03/25 12:02:08;;;;;;;2.58;2.13;;;23.00;33.20;;;;;;5053309;28;20044;-61
2021/03/25 12:04:35;;;;;;;3.35;2.50;;;23.00;33.20;;;;;;5052861;28;20063;-61
2021/03/25 12:07:02;;;;;;;3.08;2.35;;;23.00;33.30;;;;;;5050229;28;20037;-61
2021/03/25 12:09:30;;;;;;;3.15;2.30;;;23.00;33.40;;;;;;5051744;28;20021;-61
2021/03/25 12:11:55;;;;;;;2.40;2.10;;;23.00;33.50;;;;;;5052234;28;20051;-59
2021/03/25 12:14:24;;;;;;;3.22;2.45;;;23.00;33.60;;;;;;5052773;28;20037;-60
2021/03/25 12:16:59;;;;;;;2.70;2.13;;;23.00;33.60;;;;;;5051615;28;20443;-60
2021/03/25 12:19:25;;;;;;;3.67;2.22;;;23.00;33.70;;;;;;5039857;28;20036;-61
2021/03/25 12:21:52;;;;;;;2.75;2.22;;;23.00;33.70;;;;;;5046899;28;20086;-61
2021/03/25 12:24:18;;;;;;;2.22;1.98;;;23.00;33.70;;;;;;5039788;28;20044;-61
2021/03/25 12:26:44;;;;;;;2.35;2.03;;;23.00;33.70;;;;;;5051648;28;20021;-65
2021/03/25 12:29:14;;;;;;;2.88;2.35;;;23.00;33.70;;;;;;5050502;28;20031;-54
2021/03/25 12:31:42;;;;;;;3.03;1.98;;;23.00;33.80;;;;;;5044440;28;20123;-54
2021/03/25 12:34:11;;;;;;;2.58;2.17;;;23.10;34.10;;;;;;5045505;28;20044;-55
2021/03/25 12:36:37;;;;;;;2.13;1.50;;;23.10;34.30;;;;;;5042128;28;20083;-53
2021/03/25 12:39:06;;;;;;;3.15;1.60;;;23.10;34.40;;;;;;5045790;28;20448;-55
2021/03/25 12:41:36;;;;;;;1.90;1.30;;;23.20;34.50;;;;;;5048078;28;20021;-55
2021/03/25 12:44:04;;;;;;;1.70;1.50;;;23.30;34.50;;;;;;5050372;28;20028;-52
2021/03/25 12:46:29;;;;;;;2.00;1.58;;;23.30;34.40;;;;;;5046061;28;20090;-52
2021/03/25 12:48:55;;;;;;;1.83;1.67;;;23.40;34.40;;;;;;5049432;28;20029;-59
2021/03/25 12:51:22;;;;;;;1.75;1.40;;;23.40;34.30;;;;;;5047231;28;20337;-56
2021/03/25 12:53:48;;;;;;;1.63;1.50;;;23.40;34.20;;;;;;5053054;28;20025;-57
2021/03/25 12:56:31;;;;;;;3.13;2.10;;;23.50;34.20;;;;;;5047968;28;20036;-58
2021/03/25 12:59:01;;;;;;;2.13;1.70;;;23.50;34.10;;;;;;5048440;28;20048;-58
2021/03/25 13:01:28;;;;;;;1.92;1.73;;;23.50;34.10;;;;;;5047045;28;20032;-56
2021/03/25 13:03:54;;;;;;;1.70;1.60;;;23.50;34.00;;;;;;5053371;28;20377;-59
2021/03/25 13:06:23;;;;;;;2.08;1.80;;;23.50;34.00;;;;;;5049709;28;20114;-61
2021/03/25 13:08:49;;;;;;;2.10;1.45;;;23.50;33.90;;;;;;5050408;28;20467;-60
2021/03/25 13:11:18;;;;;;;1.88;1.67;;;23.50;33.80;;;;;;5051337;28;20049;-56
2021/03/25 13:13:45;;;;;;;2.40;1.90;;;23.60;33.80;;;;;;5040538;28;20041;-57
2021/03/25 13:16:11;;;;;;;2.15;1.90;;;23.60;33.80;;;;;;5050668;28;20340;-55
2021/03/25 13:18:38;;;;;;;5.47;2.25;;;23.60;34.50;;;;;;5055522;28;20033;-56
2021/03/25 13:21:05;;;;;;;2.55;1.98;;;23.70;34.00;;;;;;5048136;28;20078;-54
2021/03/25 13:23:34;;;;;;;1.98;1.75;;;23.70;34.00;;;;;;5051031;28;20095;-57
2021/03/25 13:26:02;;;;;;;2.47;1.75;;;23.80;34.10;;;;;;5045087;28;20028;-53
2021/03/25 13:28:28;;;;;;;2.47;1.98;;;23.80;34.10;;;;;;5049921;28;20176;-47
2021/03/25 13:30:55;;;;;;;2.90;2.10;;;23.90;34.20;;;;;;5046975;28;20025;-56